Time,TemperatureF,DewpointF,PressureIn,WindDirection,WindDirectionDegrees,WindSpeedMPH,WindSpeedGustMPH,Humidity,HourlyPrecipIn,Conditions,Clouds,dailyrainin,SoftwareType,DateUTC
2013-12-17 00:05:00,33.3,32.0,30.03,West,259,2.0,3.0,95,0.00,,,0.00,weatherlink.com 1.10,2013-12-17 05:05:00,
2013-12-17 00:20:00,36.5,34.0,30.04,WSW,257,2.0,9.0,90,0.00,,,0.00,weatherlink.com 1.10,2013-12-17 05:20:00,
2013-12-17 00:35:00,37.4,34.0,30.03,SW,235,4.0,8.0,87,0.00,,,0.00,weatherlink.com 1.10,2013-12-17 05:35:00,
2013-12-17 00:50:00,37.7,34.0,30.03,West,267,1.0,5.0,86,0.00,,,0.00,weatherlink.com 1.10,2013-12-17 05:50:00,
2013-12-17 01:05:00,37.6,34.0,30.04,West,259,6.0,7.0,86,0.00,,,0.00,weatherlink.com 1.10,2013-12-17 06:05:00,
2013-12-17 01:20:00,37.1,33.0,30.03,SW,227,2.0,4.0,85,0.00,,,0.00,weatherlink.com 1.10,2013-12-17 06:20:00,
2013-12-17 01:35:00,36.4,33.0,30.03,WSW,241,0.0,4.0,86,0.00,,,0.00,weatherlink.com 1.10,2013-12-17 06:35:00,
2013-12-17 01:50:00,36.0,32.0,30.03,West,270,1.0,3.0,86,0.00,,,0.00,weatherlink.com 1.10,2013-12-17 06:50:00,
2013-12-17 02:05:00,35.7,32.0,30.04,West,270,0.0,2.0,86,0.00,,,0.00,weatherlink.com 1.10,2013-12-17 07:05:00,
2013-12-17 02:22:00,36.0,32.0,30.05,WSW,253,5.0,8.0,84,0.00,,,0.00,weatherlink.com 1.10,2013-12-17 07:22:00,
2013-12-17 02:36:00,35.8,31.0,30.05,West,273,0.0,9.0,84,0.00,,,0.00,weatherlink.com 1.10,2013-12-17 07:36:00,
2013-12-17 02:51:00,35.1,31.0,30.06,NW,323,3.0,8.0,84,0.00,,,0.00,weatherlink.com 1.10,2013-12-17 07:51:00,
2013-12-17 03:06:00,34.3,30.0,30.06,West,279,0.0,6.0,85,0.00,,,0.00,weatherlink.com 1.10,2013-12-17 08:06:00,
2013-12-17 03:21:00,33.6,30.0,30.06,West,265,0.0,5.0,86,0.00,,,0.00,weatherlink.com 1.10,2013-12-17 08:21:00,
2013-12-17 03:36:00,32.9,30.0,30.06,West,266,1.0,3.0,88,0.00,,,0.00,weatherlink.com 1.10,2013-12-17 08:36:00,
2013-12-17 03:51:00,32.6,30.0,30.07,NNW,330,1.0,4.0,88,0.00,,,0.00,weatherlink.com 1.10,2013-12-17 08:51:00,
2013-12-17 04:06:00,32.2,29.0,30.07,North,351,3.0,5.0,88,0.00,,,0.00,weatherlink.com 1.10,2013-12-17 09:06:00,
2013-12-17 04:21:00,31.4,29.0,30.07,NNW,346,2.0,7.0,89,0.00,,,0.00,weatherlink.com 1.10,2013-12-17 09:21:00,
2013-12-17 04:36:00,30.6,28.0,30.08,NW,319,0.0,9.0,90,0.00,,,0.00,weatherlink.com 1.10,2013-12-17 09:36:00,
2013-12-17 04:51:00,30.2,28.0,30.08,NW,318,2.0,8.0,90,0.00,,,0.00,weatherlink.com 1.10,2013-12-17 09:51:00,
2013-12-17 05:06:00,30.0,28.0,30.08,West,261,5.0,6.0,91,0.00,,,0.00,weatherlink.com 1.10,2013-12-17 10:06:00,
2013-12-17 05:21:00,29.8,28.0,30.07,West,260,2.0,4.0,91,0.00,,,0.00,weatherlink.com 1.10,2013-12-17 10:21:00,
2013-12-17 05:36:00,29.6,27.0,30.12,SW,236,2.0,5.0,91,0.00,,,0.00,weatherlink.com 1.10,2013-12-17 10:36:00,
2013-12-17 05:51:00,29.3,27.0,30.11,WSW,250,4.0,5.0,91,0.00,,,0.00,weatherlink.com 1.10,2013-12-17 10:51:00,
2013-12-17 06:06:00,29.0,27.0,30.11,SW,226,1.0,6.0,91,0.00,,,0.00,weatherlink.com 1.10,2013-12-17 11:06:00,
2013-12-17 06:21:00,28.8,26.0,30.10,West,262,0.0,6.0,90,0.00,,,0.00,weatherlink.com 1.10,2013-12-17 11:21:00,
2013-12-17 06:36:00,28.6,26.0,30.10,WSW,250,0.0,4.0,90,0.00,,,0.00,weatherlink.com 1.10,2013-12-17 11:36:00,
2013-12-17 06:51:00,28.5,26.0,30.10,WNW,284,0.0,2.0,90,0.00,,,0.00,weatherlink.com 1.10,2013-12-17 11:51:00,
2013-12-17 07:06:00,28.4,26.0,30.10,West,259,1.0,3.0,90,0.00,,,0.00,weatherlink.com 1.10,2013-12-17 12:06:00,
2013-12-17 07:21:00,28.5,26.0,30.11,West,259,1.0,3.0,91,0.00,,,0.00,weatherlink.com 1.10,2013-12-17 12:21:00,
2013-12-17 07:36:00,28.5,26.0,30.12,West,259,0.0,3.0,91,0.00,,,0.00,weatherlink.com 1.10,2013-12-17 12:36:00,
2013-12-17 07:51:00,28.6,26.0,30.12,WSW,250,1.0,6.0,91,0.00,,,0.00,weatherlink.com 1.10,2013-12-17 12:51:00,
2013-12-17 08:07:00,28.4,26.0,30.12,West,267,2.0,6.0,91,0.00,,,0.00,weatherlink.com 1.10,2013-12-17 13:07:00,
2013-12-17 08:21:00,28.4,26.0,30.12,West,270,1.0,3.0,91,0.00,,,0.00,weatherlink.com 1.10,2013-12-17 13:21:00,
2013-12-17 08:36:00,28.5,27.0,30.13,WSW,252,0.0,6.0,92,0.00,,,0.00,weatherlink.com 1.10,2013-12-17 13:36:00,
2013-12-17 08:51:00,28.5,27.0,30.13,West,263,5.0,6.0,92,0.00,,,0.00,weatherlink.com 1.10,2013-12-17 13:51:00,
2013-12-17 09:06:00,28.3,26.0,30.14,WSW,240,6.0,8.0,91,0.00,,,0.00,weatherlink.com 1.10,2013-12-17 14:06:00,
2013-12-17 09:21:00,28.0,26.0,30.14,WSW,248,1.0,6.0,91,0.00,,,0.00,weatherlink.com 1.10,2013-12-17 14:21:00,
2013-12-17 09:36:00,28.0,25.0,30.14,WSW,243,1.0,6.0,89,0.00,,,0.00,weatherlink.com 1.10,2013-12-17 14:36:00,
2013-12-17 09:51:00,28.2,26.0,30.14,SW,219,4.0,7.0,90,0.00,,,0.00,weatherlink.com 1.10,2013-12-17 14:51:00,
2013-12-17 10:06:00,28.4,26.0,30.14,SW,219,5.0,7.0,90,0.00,,,0.00,weatherlink.com 1.10,2013-12-17 15:06:00,
2013-12-17 10:21:00,28.3,26.0,30.14,West,261,1.0,7.0,90,0.00,,,0.00,weatherlink.com 1.10,2013-12-17 15:21:00,
2013-12-17 10:36:00,28.5,26.0,30.15,SW,224,2.0,6.0,89,0.00,,,0.00,weatherlink.com 1.10,2013-12-17 15:36:00,
2013-12-17 10:51:00,28.4,26.0,30.14,WSW,249,1.0,7.0,89,0.00,,,0.00,weatherlink.com 1.10,2013-12-17 15:51:00,
2013-12-17 11:06:00,28.4,25.0,30.15,NW,323,2.0,11.0,88,0.00,,,0.00,weatherlink.com 1.10,2013-12-17 16:06:00,
2013-12-17 11:21:00,28.0,25.0,30.14,WSW,248,1.0,8.0,88,0.00,,,0.00,weatherlink.com 1.10,2013-12-17 16:21:00,
2013-12-17 11:36:00,28.1,25.0,30.13,SSW,205,3.0,7.0,89,0.00,,,0.00,weatherlink.com 1.10,2013-12-17 16:36:00,
2013-12-17 11:52:00,28.2,25.0,30.13,West,261,0.0,6.0,89,0.00,,,0.00,weatherlink.com 1.10,2013-12-17 16:52:00,
2013-12-17 12:07:00,28.5,25.0,30.12,WSW,248,4.0,9.0,88,0.00,,,0.00,weatherlink.com 1.10,2013-12-17 17:07:00,
2013-12-17 12:22:00,28.8,26.0,30.11,West,259,2.0,6.0,88,0.00,,,0.00,weatherlink.com 1.10,2013-12-17 17:22:00,
2013-12-17 12:37:00,29.2,26.0,30.11,West,267,1.0,9.0,87,0.00,,,0.00,weatherlink.com 1.10,2013-12-17 17:37:00,
2013-12-17 12:52:00,28.8,25.0,30.11,West,273,4.0,11.0,87,0.00,,,0.00,weatherlink.com 1.10,2013-12-17 17:52:00,
2013-12-17 13:07:00,29.3,26.0,30.11,West,262,7.0,9.0,88,0.00,,,0.00,weatherlink.com 1.10,2013-12-17 18:07:00,
2013-12-17 13:22:00,29.7,26.0,30.11,West,262,6.0,9.0,86,0.00,,,0.00,weatherlink.com 1.10,2013-12-17 18:22:00,
2013-12-17 13:37:00,30.0,26.0,30.11,SW,236,2.0,8.0,86,0.00,,,0.00,weatherlink.com 1.10,2013-12-17 18:37:00,
2013-12-17 13:52:00,29.9,26.0,30.11,West,265,5.0,11.0,85,0.00,,,0.00,weatherlink.com 1.10,2013-12-17 18:52:00,
2013-12-17 14:07:00,29.8,26.0,30.11,WSW,238,6.0,8.0,85,0.00,,,0.00,weatherlink.com 1.10,2013-12-17 19:07:00,
2013-12-17 14:22:00,30.0,26.0,30.11,WSW,253,5.0,10.0,85,0.00,,,0.00,weatherlink.com 1.10,2013-12-17 19:22:00,
2013-12-17 14:37:00,31.4,27.0,30.12,WSW,237,1.0,8.0,84,0.00,,,0.00,weatherlink.com 1.10,2013-12-17 19:37:00,
2013-12-17 14:52:00,31.0,26.0,30.12,West,259,0.0,11.0,83,0.00,,,0.00,weatherlink.com 1.10,2013-12-17 19:52:00,
2013-12-17 15:07:00,30.7,26.0,30.13,West,274,7.0,10.0,82,0.00,,,0.00,weatherlink.com 1.10,2013-12-17 20:07:00,
2013-12-17 15:22:00,30.8,26.0,30.13,West,265,7.0,11.0,83,0.00,,,0.00,weatherlink.com 1.10,2013-12-17 20:22:00,
2013-12-17 15:37:00,30.9,26.0,30.13,WSW,238,6.0,12.0,82,0.00,,,0.00,weatherlink.com 1.10,2013-12-17 20:37:00,
2013-12-17 15:52:00,30.8,26.0,30.13,WSW,258,10.0,11.0,82,0.00,,,0.00,weatherlink.com 1.10,2013-12-17 20:52:00,
2013-12-17 16:07:00,30.9,26.0,30.15,WNW,297,6.0,13.0,82,0.00,,,0.00,weatherlink.com 1.10,2013-12-17 21:07:00,
2013-12-17 16:22:00,31.0,26.0,30.15,WSW,247,5.0,15.0,82,0.00,,,0.00,weatherlink.com 1.10,2013-12-17 21:22:00,
2013-12-17 16:37:00,30.8,26.0,30.15,WNW,287,1.0,9.0,83,0.00,,,0.00,weatherlink.com 1.10,2013-12-17 21:37:00,
2013-12-17 16:52:00,30.8,26.0,30.15,SW,235,3.0,12.0,82,0.00,,,0.00,weatherlink.com 1.10,2013-12-17 21:52:00,
2013-12-17 17:07:00,30.5,26.0,30.14,West,267,3.0,8.0,83,0.00,,,0.00,weatherlink.com 1.10,2013-12-17 22:07:00,
2013-12-17 17:22:00,30.3,26.0,30.14,WSW,253,4.0,8.0,84,0.00,,,0.00,weatherlink.com 1.10,2013-12-17 22:22:00,
2013-12-17 17:37:00,30.1,26.0,30.15,WSW,251,3.0,7.0,84,0.00,,,0.00,weatherlink.com 1.10,2013-12-17 22:37:00,
2013-12-17 17:52:00,29.8,26.0,30.15,West,277,5.0,6.0,85,0.00,,,0.00,weatherlink.com 1.10,2013-12-17 22:52:00,
2013-12-17 18:07:00,29.7,26.0,30.16,WSW,257,2.0,7.0,85,0.00,,,0.00,weatherlink.com 1.10,2013-12-17 23:07:00,
2013-12-17 18:22:00,29.6,26.0,30.16,SSW,211,2.0,6.0,86,0.00,,,0.00,weatherlink.com 1.10,2013-12-17 23:22:00,
2013-12-17 18:37:00,29.2,26.0,30.17,WSW,248,3.0,3.0,86,0.00,,,0.00,weatherlink.com 1.10,2013-12-17 23:37:00,
2013-12-17 18:52:00,28.8,26.0,30.17,WSW,246,0.0,4.0,88,0.00,,,0.00,weatherlink.com 1.10,2013-12-17 23:52:00,
2013-12-17 19:07:00,28.9,26.0,30.18,WSW,240,2.0,4.0,89,0.00,,,0.00,weatherlink.com 1.10,2013-12-18 00:07:00,
2013-12-17 19:22:00,29.6,27.0,30.20,WSW,244,2.0,6.0,89,0.00,,,0.00,weatherlink.com 1.10,2013-12-18 00:22:00,
2013-12-17 19:37:00,30.2,27.0,30.20,WSW,238,2.0,6.0,88,0.00,,,0.00,weatherlink.com 1.10,2013-12-18 00:37:00,
2013-12-17 19:52:00,30.4,27.0,30.21,WSW,252,2.0,6.0,88,0.00,,,0.00,weatherlink.com 1.10,2013-12-18 00:52:00,
2013-12-17 20:07:00,30.5,27.0,30.21,West,262,0.0,5.0,88,0.00,,,0.00,weatherlink.com 1.10,2013-12-18 01:07:00,
2013-12-17 20:22:00,30.0,27.0,30.21,WSW,250,3.0,4.0,88,0.00,,,0.00,weatherlink.com 1.10,2013-12-18 01:22:00,
2013-12-17 20:37:00,29.7,27.0,30.21,West,260,1.0,3.0,89,0.00,,,0.00,weatherlink.com 1.10,2013-12-18 01:37:00,
2013-12-17 20:52:00,29.3,27.0,30.21,WSW,251,0.0,1.0,89,0.00,,,0.00,weatherlink.com 1.10,2013-12-18 01:52:00,
2013-12-17 21:07:00,28.7,26.0,30.21,WSW,251,1.0,2.0,89,0.00,,,0.00,weatherlink.com 1.10,2013-12-18 02:07:00,
2013-12-17 21:22:00,28.3,26.0,30.21,West,260,1.0,2.0,90,0.00,,,0.00,weatherlink.com 1.10,2013-12-18 02:22:00,
2013-12-17 21:37:00,28.1,26.0,30.22,West,260,0.0,0.0,91,0.00,,,0.00,weatherlink.com 1.10,2013-12-18 02:37:00,
2013-12-17 21:52:00,27.7,26.0,30.22,West,260,0.0,0.0,91,0.00,,,0.00,weatherlink.com 1.10,2013-12-18 02:52:00,
2013-12-17 22:07:00,27.2,25.0,30.22,West,260,0.0,1.0,91,0.00,,,0.00,weatherlink.com 1.10,2013-12-18 03:07:00,
2013-12-17 22:22:00,26.7,25.0,30.22,West,260,0.0,0.0,92,0.00,,,0.00,weatherlink.com 1.10,2013-12-18 03:22:00,
2013-12-17 22:38:00,26.3,24.0,30.22,West,260,0.0,0.0,92,0.00,,,0.00,weatherlink.com 1.10,2013-12-18 03:38:00,
2013-12-17 22:52:00,25.9,24.0,30.23,West,260,0.0,0.0,93,0.00,,,0.00,weatherlink.com 1.10,2013-12-18 03:52:00,
2013-12-17 23:07:00,25.4,24.0,30.23,West,260,0.0,0.0,93,0.00,,,0.00,weatherlink.com 1.10,2013-12-18 04:07:00,
2013-12-17 23:22:00,25.0,23.0,30.23,West,260,0.0,1.0,93,0.00,,,0.00,weatherlink.com 1.10,2013-12-18 04:22:00,
2013-12-17 23:37:00,24.5,23.0,30.23,West,260,0.0,0.0,93,0.00,,,0.00,weatherlink.com 1.10,2013-12-18 04:37:00,
2013-12-17 23:52:00,24.0,22.0,30.23,West,260,0.0,0.0,93,0.00,,,0.00,weatherlink.com 1.10,2013-12-18 04:52:00,